Terminal Aerodrome Forecast
Issued by NWS Mt. Holly, NJ

Home | Current Version | Previous Version | Text Only | Print | Product List | Glossary On
Versions: 1 2 3 4 5 6 7 8 9 10 11 12 13 14 15 16 17 18 19
864
FTUS41 KPHI 170521
TAFACY
TAF
KACY 170521Z 1706/1806 VRB03KT P6SM OVC004
     FM170800 33006KT 4SM -RA BR OVC004
     FM171000 31010KT 2SM -SN OVC008
     FM171400 31010G18KT P6SM OVC015
     FM171600 31010G20KT P6SM BKN050
     FM172300 32010KT P6SM SCT100=

USA.gov is the U.S. government's official web portal to all federal, state and local government web resources and services.